sensor_id;sensor_type;location;lat;lon;timestamp;pressure;altitude;pressure_sealevel;temperature;humidity
70506;BME280;58032;49.820;6.274;2022-09-09T00:04:21;97079.00;;;12.49;100.00
70506;BME280;58032;49.820;6.274;2022-09-09T00:07:04;97081.69;;;12.43;100.00
70506;BME280;58032;49.820;6.274;2022-09-09T00:09:44;97089.09;;;12.41;100.00
70506;BME280;58032;49.820;6.274;2022-09-09T00:12:27;97084.13;;;12.35;100.00
70506;BME280;58032;49.820;6.274;2022-09-09T00:15:03;97090.06;;;12.38;100.00
70506;BME280;58032;49.820;6.274;2022-09-09T00:17:41;97107.78;;;12.38;100.00
70506;BME280;58032;49.820;6.274;2022-09-09T00:20:22;97105.28;;;12.40;100.00
70506;BME280;58032;49.820;6.274;2022-09-09T00:23:02;97101.47;;;12.43;100.00
70506;BME280;58032;49.820;6.274;2022-09-09T00:25:39;97109.34;;;12.39;100.00
70506;BME280;58032;49.820;6.274;2022-09-09T00:28:19;97110.44;;;12.42;100.00
70506;BME280;58032;49.820;6.274;2022-09-09T00:30:47;97108.97;;;12.46;100.00
70506;BME280;58032;49.820;6.274;2022-09-09T00:33:20;97114.25;;;12.54;100.00
70506;BME280;58032;49.820;6.274;2022-09-09T00:35:56;97115.50;;;12.53;100.00
70506;BME280;58032;49.820;6.274;2022-09-09T00:38:28;97119.09;;;12.53;100.00
70506;BME280;58032;49.820;6.274;2022-09-09T00:41:21;97111.91;;;12.52;100.00
70506;BME280;58032;49.820;6.274;2022-09-09T00:43:56;97118.13;;;12.41;100.00
70506;BME280;58032;49.820;6.274;2022-09-09T00:50:02;97116.97;;;12.48;100.00
70506;BME280;58032;49.820;6.274;2022-09-09T00:55:17;97107.13;;;12.43;100.00
70506;BME280;58032;49.820;6.274;2022-09-09T00:57:48;97098.63;;;12.43;100.00
70506;BME280;58032;49.820;6.274;2022-09-09T01:00:27;97106.72;;;12.50;100.00
70506;BME280;58032;49.820;6.274;2022-09-09T01:03:43;97102.56;;;12.61;100.00
70506;BME280;58032;49.820;6.274;2022-09-09T01:06:22;97104.13;;;12.62;100.00
70506;BME280;58032;49.820;6.274;2022-09-09T01:09:18;97103.34;;;12.61;100.00
70506;BME280;58032;49.820;6.274;2022-09-09T01:14:42;97108.78;;;12.50;100.00
70506;BME280;58032;49.820;6.274;2022-09-09T01:20:14;97114.94;;;12.48;100.00
70506;BME280;58032;49.820;6.274;2022-09-09T01:28:32;97126.13;;;12.58;100.00
70506;BME280;58032;49.820;6.274;2022-09-09T01:31:06;97117.94;;;12.60;100.00
70506;BME280;58032;49.820;6.274;2022-09-09T01:33:41;97131.78;;;12.58;100.00
70506;BME280;58032;49.820;6.274;2022-09-09T01:36:24;97121.47;;;12.55;100.00
70506;BME280;58032;49.820;6.274;2022-09-09T01:38:54;97119.22;;;12.59;100.00
70506;BME280;58032;49.820;6.274;2022-09-09T01:41:21;97121.06;;;12.62;100.00
70506;BME280;58032;49.820;6.274;2022-09-09T01:43:56;97108.72;;;12.59;100.00
70506;BME280;58032;49.820;6.274;2022-09-09T01:46:25;97114.25;;;12.54;100.00
70506;BME280;58032;49.820;6.274;2022-09-09T01:48:53;97106.72;;;12.50;100.00
70506;BME280;58032;49.820;6.274;2022-09-09T01:51:21;97109.28;;;12.48;100.00
70506;BME280;58032;49.820;6.274;2022-09-09T01:53:48;97116.19;;;12.47;100.00
70506;BME280;58032;49.820;6.274;2022-09-09T02:04:17;97114.63;;;12.46;100.00
70506;BME280;58032;49.820;6.274;2022-09-09T02:06:55;97111.50;;;12.44;100.00
70506;BME280;58032;49.820;6.274;2022-09-09T02:09:29;97107.03;;;12.53;100.00
70506;BME280;58032;49.820;6.274;2022-09-09T02:12:06;97108.38;;;12.42;100.00
70506;BME280;58032;49.820;6.274;2022-09-09T02:14:47;97115.13;;;12.45;100.00
70506;BME280;58032;49.820;6.274;2022-09-09T02:17:25;97111.50;;;12.44;100.00
70506;BME280;58032;49.820;6.274;2022-09-09T02:20:10;97099.53;;;12.49;100.00
70506;BME280;58032;49.820;6.274;2022-09-09T02:22:45;97098.38;;;12.56;100.00
70506;BME280;58032;49.820;6.274;2022-09-09T02:25:18;97103.34;;;12.61;100.00
70506;BME280;58032;49.820;6.274;2022-09-09T02:27:49;97098.78;;;12.64;100.00
70506;BME280;58032;49.820;6.274;2022-09-09T02:30:19;97106.38;;;12.73;100.00
70506;BME280;58032;49.820;6.274;2022-09-09T02:32:56;97113.59;;;12.74;100.00
70506;BME280;58032;49.820;6.274;2022-09-09T02:35:52;97095.84;;;12.73;100.00
70506;BME280;58032;49.820;6.274;2022-09-09T02:38:26;97099.66;;;12.85;100.00
70506;BME280;58032;49.820;6.274;2022-09-09T02:41:08;97100.16;;;12.83;100.00
70506;BME280;58032;49.820;6.274;2022-09-09T02:43:36;97093.44;;;12.81;100.00
70506;BME280;58032;49.820;6.274;2022-09-09T02:46:24;97087.66;;;12.75;100.00
70506;BME280;58032;49.820;6.274;2022-09-09T02:49:00;97091.47;;;12.72;100.00
70506;BME280;58032;49.820;6.274;2022-09-09T02:51:40;97093.31;;;12.75;100.00
70506;BME280;58032;49.820;6.274;2022-09-09T02:54:30;97085.34;;;12.74;100.00
70506;BME280;58032;49.820;6.274;2022-09-09T02:57:11;97089.53;;;12.78;100.00
70506;BME280;58032;49.820;6.274;2022-09-09T02:59:40;97088.53;;;12.81;100.00
70506;BME280;58032;49.820;6.274;2022-09-09T03:02:08;97080.06;;;12.81;100.00
70506;BME280;58032;49.820;6.274;2022-09-09T03:04:38;97087.19;;;12.77;100.00
70506;BME280;58032;49.820;6.274;2022-09-09T03:07:06;97083.28;;;12.74;100.00
70506;BME280;58032;49.820;6.274;2022-09-09T03:09:33;97090.00;;;12.77;100.00
70506;BME280;58032;49.820;6.274;2022-09-09T03:12:00;97084.28;;;12.71;100.00
70506;BME280;58032;49.820;6.274;2022-09-09T03:14:28;97090.31;;;12.79;100.00
70506;BME280;58032;49.820;6.274;2022-09-09T03:16:56;97085.63;;;12.76;100.00
70506;BME280;58032;49.820;6.274;2022-09-09T03:19:24;97084.84;;;12.75;100.00
70506;BME280;58032;49.820;6.274;2022-09-09T03:21:51;97083.69;;;12.82;100.00
70506;BME280;58032;49.820;6.274;2022-09-09T03:24:19;97082.13;;;12.81;100.00
70506;BME280;58032;49.820;6.274;2022-09-09T03:26:46;97087.88;;;12.87;100.00
70506;BME280;58032;49.820;6.274;2022-09-09T03:29:16;97082.69;;;12.85;100.00
70506;BME280;58032;49.820;6.274;2022-09-09T03:31:44;97085.94;;;12.93;100.00
70506;BME280;58032;49.820;6.274;2022-09-09T03:34:11;97082.81;;;12.91;100.00
70506;BME280;58032;49.820;6.274;2022-09-09T03:36:40;97083.09;;;12.93;100.00
70506;BME280;58032;49.820;6.274;2022-09-09T03:39:08;97079.47;;;12.92;100.00
70506;BME280;58032;49.820;6.274;2022-09-09T03:41:35;97079.47;;;12.92;100.00
70506;BME280;58032;49.820;6.274;2022-09-09T03:44:03;97085.63;;;12.91;100.00
70506;BME280;58032;49.820;6.274;2022-09-09T03:46:36;97084.16;;;12.95;100.00
70506;BME280;58032;49.820;6.274;2022-09-09T03:49:03;97075.59;;;12.90;100.00
70506;BME280;58032;49.820;6.274;2022-09-09T03:51:31;97082.50;;;12.89;100.00
70506;BME280;58032;49.820;6.274;2022-09-09T03:54:05;97084.38;;;12.92;100.00
70506;BME280;58032;49.820;6.274;2022-09-09T03:56:37;97084.06;;;12.90;100.00
70506;BME280;58032;49.820;6.274;2022-09-09T03:59:04;97085.44;;;12.94;100.00
70506;BME280;58032;49.820;6.274;2022-09-09T04:01:31;97083.66;;;12.97;100.00
70506;BME280;58032;49.820;6.274;2022-09-09T04:03:58;97090.78;;;12.92;100.00
70506;BME280;58032;49.820;6.274;2022-09-09T04:06:25;97076.44;;;12.96;100.00
70506;BME280;58032;49.820;6.274;2022-09-09T04:08:52;97069.06;;;12.98;100.00
70506;BME280;58032;49.820;6.274;2022-09-09T04:11:20;97069.72;;;12.93;100.00
70506;BME280;58032;49.820;6.274;2022-09-09T04:13:50;97075.88;;;12.92;100.00
70506;BME280;58032;49.820;6.274;2022-09-09T04:16:18;97069.44;;;12.91;100.00
70506;BME280;58032;49.820;6.274;2022-09-09T04:18:45;97069.63;;;12.88;100.00
70506;BME280;58032;49.820;6.274;2022-09-09T04:21:15;97065.53;;;12.89;100.00
70506;BME280;58032;49.820;6.274;2022-09-09T04:23:42;97069.38;;;12.86;100.00
70506;BME280;58032;49.820;6.274;2022-09-09T04:26:09;97066.03;;;12.87;100.00
70506;BME280;58032;49.820;6.274;2022-09-09T04:28:37;97076.84;;;12.89;100.00
70506;BME280;58032;49.820;6.274;2022-09-09T04:31:29;97074.22;;;12.85;100.00
70506;BME280;58032;49.820;6.274;2022-09-09T04:33:56;97070.72;;;12.75;100.00
70506;BME280;58032;49.820;6.274;2022-09-09T04:36:24;97072.78;;;12.75;100.00
70506;BME280;58032;49.820;6.274;2022-09-09T04:38:56;97079.19;;;12.75;100.00
70506;BME280;58032;49.820;6.274;2022-09-09T04:41:23;97077.44;;;12.78;100.00
70506;BME280;58032;49.820;6.274;2022-09-09T04:43:52;97071.97;;;12.74;100.00
70506;BME280;58032;49.820;6.274;2022-09-09T04:46:21;97070.81;;;12.81;100.00
70506;BME280;58032;49.820;6.274;2022-09-09T04:48:50;97070.22;;;12.77;100.00
70506;BME280;58032;49.820;6.274;2022-09-09T04:51:19;97077.63;;;12.74;100.00
70506;BME280;58032;49.820;6.274;2022-09-09T04:53:48;97087.66;;;12.75;100.00
70506;BME280;58032;49.820;6.274;2022-09-09T04:56:17;97086.09;;;12.74;100.00
70506;BME280;58032;49.820;6.274;2022-09-09T04:58:53;97089.34;;;12.82;100.00
70506;BME280;58032;49.820;6.274;2022-09-09T05:01:24;97092.94;;;12.82;100.00
70506;BME280;58032;49.820;6.274;2022-09-09T05:03:53;97090.59;;;12.81;100.00
70506;BME280;58032;49.820;6.274;2022-09-09T05:06:22;97091.88;;;12.80;100.00
70506;BME280;58032;49.820;6.274;2022-09-09T05:08:54;97090.00;;;12.77;100.00
70506;BME280;58032;49.820;6.274;2022-09-09T05:11:29;97095.75;;;12.82;100.00
70506;BME280;58032;49.820;6.274;2022-09-09T05:14:00;97099.38;;;12.83;100.00
70506;BME280;58032;49.820;6.274;2022-09-09T05:16:30;97098.09;;;12.84;100.00
70506;BME280;58032;49.820;6.274;2022-09-09T05:18:57;97099.38;;;12.83;100.00
70506;BME280;58032;49.820;6.274;2022-09-09T05:21:25;97105.69;;;12.78;100.00
70506;BME280;58032;49.820;6.274;2022-09-09T05:23:54;97106.09;;;12.86;100.00
70506;BME280;58032;49.820;6.274;2022-09-09T05:26:22;97108.03;;;12.94;100.00
70506;BME280;58032;49.820;6.274;2022-09-09T05:28:51;97107.34;;;12.85;100.00
70506;BME280;58032;49.820;6.274;2022-09-09T05:31:19;97101.22;;;12.86;100.00
70506;BME280;58032;49.820;6.274;2022-09-09T05:33:49;97106.66;;;12.90;100.00
70506;BME280;58032;49.820;6.274;2022-09-09T05:36:19;97106.78;;;12.95;100.00
70506;BME280;58032;49.820;6.274;2022-09-09T05:38:49;97110.97;;;13.00;100.00
70506;BME280;58032;49.820;6.274;2022-09-09T05:41:18;97108.03;;;12.94;100.00
70506;BME280;58032;49.820;6.274;2022-09-09T05:43:47;97105.13;;;13.04;100.00
70506;BME280;58032;49.820;6.274;2022-09-09T05:46:23;97111.63;;;13.10;100.00
70506;BME280;58032;49.820;6.274;2022-09-09T05:48:53;97101.78;;;13.05;100.00
70506;BME280;58032;49.820;6.274;2022-09-09T05:51:31;97108.59;;;13.13;100.00
70506;BME280;58032;49.820;6.274;2022-09-09T05:54:03;97101.50;;;13.03;100.00
70506;BME280;58032;49.820;6.274;2022-09-09T05:56:33;97109.97;;;13.03;100.00
70506;BME280;58032;49.820;6.274;2022-09-09T05:59:00;97105.22;;;13.09;100.00
70506;BME280;58032;49.820;6.274;2022-09-09T06:01:30;97110.16;;;13.14;100.00
70506;BME280;58032;49.820;6.274;2022-09-09T06:03:59;97107.03;;;13.12;100.00
70506;BME280;58032;49.820;6.274;2022-09-09T06:06:30;97109.00;;;13.06;100.00
70506;BME280;58032;49.820;6.274;2022-09-09T06:08:59;97105.69;;;13.08;100.00
70506;BME280;58032;49.820;6.274;2022-09-09T06:11:31;97092.81;;;13.22;100.00
70506;BME280;58032;49.820;6.274;2022-09-09T06:13:59;97096.50;;;13.28;100.00
70506;BME280;58032;49.820;6.274;2022-09-09T06:16:29;97101.00;;;13.20;100.00
70506;BME280;58032;49.820;6.274;2022-09-09T06:18:56;97106.53;;;13.29;100.00
70506;BME280;58032;49.820;6.274;2022-09-09T06:21:27;97095.47;;;13.61;100.00
70506;BME280;58032;49.820;6.274;2022-09-09T06:23:54;97097.72;;;13.57;100.00
70506;BME280;58032;49.820;6.274;2022-09-09T06:26:26;97103.25;;;13.66;100.00
70506;BME280;58032;49.820;6.274;2022-09-09T06:28:55;97102.22;;;13.49;100.00
70506;BME280;58032;49.820;6.274;2022-09-09T06:31:26;97106.88;;;13.67;100.00
70506;BME280;58032;49.820;6.274;2022-09-09T06:34:00;97096.09;;;13.86;100.00
70506;BME280;58032;49.820;6.274;2022-09-09T06:36:34;97100.59;;;13.77;100.00
70506;BME280;58032;49.820;6.274;2022-09-09T06:39:01;97099.56;;;13.96;100.00
70506;BME280;58032;49.820;6.274;2022-09-09T06:41:31;97095.88;;;14.10;100.00
70506;BME280;58032;49.820;6.274;2022-09-09T06:44:01;97095.50;;;13.82;100.00
70506;BME280;58032;49.820;6.274;2022-09-09T06:46:33;97100.59;;;13.77;100.00
70506;BME280;58032;49.820;6.274;2022-09-09T06:49:02;97094.81;;;13.87;100.00
70506;BME280;58032;49.820;6.274;2022-09-09T06:51:31;97093.19;;;13.80;100.00
70506;BME280;58032;49.820;6.274;2022-09-09T06:54:00;97098.91;;;13.86;100.00
70506;BME280;58032;49.820;6.274;2022-09-09T06:56:37;97089.56;;;14.21;100.00
70506;BME280;58032;49.820;6.274;2022-09-09T06:59:11;97097.78;;;14.19;100.00
70506;BME280;58032;49.820;6.274;2022-09-09T07:01:41;97091.41;;;14.24;100.00
70506;BME280;58032;49.820;6.274;2022-09-09T07:04:11;97095.38;;;14.12;100.00
70506;BME280;58032;49.820;6.274;2022-09-09T07:06:43;97106.81;;;13.82;100.00
70506;BME280;58032;49.820;6.274;2022-09-09T07:09:15;97109.50;;;13.70;100.00
70506;BME280;58032;49.820;6.274;2022-09-09T07:11:47;97111.19;;;13.62;100.00
70506;BME280;58032;49.820;6.274;2022-09-09T07:14:16;97106.06;;;13.81;100.00
70506;BME280;58032;49.820;6.274;2022-09-09T07:16:46;97107.31;;;13.80;100.00
70506;BME280;58032;49.820;6.274;2022-09-09T07:19:15;97101.66;;;13.59;100.00
70506;BME280;58032;49.820;6.274;2022-09-09T07:21:44;97111.31;;;13.53;100.00
70506;BME280;58032;49.820;6.274;2022-09-09T07:24:14;97115.78;;;13.59;100.00
70506;BME280;58032;49.820;6.274;2022-09-09T07:26:43;97109.91;;;13.63;100.00
70506;BME280;58032;49.820;6.274;2022-09-09T07:29:11;97111.09;;;13.92;100.00
70506;BME280;58032;49.820;6.274;2022-09-09T07:31:43;97118.72;;;13.86;100.00
70506;BME280;58032;49.820;6.274;2022-09-09T07:34:14;97110.97;;;14.01;100.00
70506;BME280;58032;49.820;6.274;2022-09-09T07:36:41;97106.69;;;14.12;100.00
70506;BME280;58032;49.820;6.274;2022-09-09T07:39:13;97108.34;;;14.18;100.00
70506;BME280;58032;49.820;6.274;2022-09-09T07:41:46;97109.09;;;14.19;100.00
70506;BME280;58032;49.820;6.274;2022-09-09T07:44:21;97108.53;;;14.35;100.00
70506;BME280;58032;49.820;6.274;2022-09-09T07:47:03;97107.94;;;14.52;100.00
70506;BME280;58032;49.820;6.274;2022-09-09T07:49:35;97100.56;;;14.60;100.00
70506;BME280;58032;49.820;6.274;2022-09-09T07:52:04;97100.47;;;14.28;100.00
70506;BME280;58032;49.820;6.274;2022-09-09T07:54:32;97097.34;;;14.26;100.00
70506;BME280;58032;49.820;6.274;2022-09-09T07:57:02;97111.00;;;13.86;100.00
70506;BME280;58032;49.820;6.274;2022-09-09T07:59:33;97110.03;;;14.57;100.00
70506;BME280;58032;49.820;6.274;2022-09-09T08:02:01;97096.03;;;15.64;100.00
70506;BME280;58032;49.820;6.274;2022-09-09T08:04:31;97096.84;;;16.14;100.00
70506;BME280;58032;49.820;6.274;2022-09-09T08:07:00;97092.97;;;14.98;100.00
70506;BME280;58032;49.820;6.274;2022-09-09T08:09:30;97113.47;;;14.61;100.00
70506;BME280;58032;49.820;6.274;2022-09-09T08:12:17;97115.34;;;14.23;100.00
70506;BME280;58032;49.820;6.274;2022-09-09T08:14:45;97116.25;;;14.35;100.00
70506;BME280;58032;49.820;6.274;2022-09-09T08:17:12;97119.19;;;14.46;100.00
70506;BME280;58032;49.820;6.274;2022-09-09T08:19:39;97120.78;;;14.27;100.00
70506;BME280;58032;49.820;6.274;2022-09-09T08:22:10;97122.50;;;14.18;100.00
70506;BME280;58032;49.820;6.274;2022-09-09T08:24:39;97129.44;;;14.17;100.00
70506;BME280;58032;49.820;6.274;2022-09-09T08:27:07;97118.03;;;14.12;100.00
70506;BME280;58032;49.820;6.274;2022-09-09T08:29:35;97129.84;;;14.10;100.00
70506;BME280;58032;49.820;6.274;2022-09-09T08:32:04;97137.69;;;14.00;100.00
70506;BME280;58032;49.820;6.274;2022-09-09T08:34:32;97135.00;;;14.12;100.00
70506;BME280;58032;49.820;6.274;2022-09-09T08:37:03;97130.06;;;14.06;100.00
70506;BME280;58032;49.820;6.274;2022-09-09T08:39:36;97130.41;;;14.14;100.00
70506;BME280;58032;49.820;6.274;2022-09-09T08:42:16;97130.13;;;14.12;100.00
70506;BME280;58032;49.820;6.274;2022-09-09T08:47:54;97121.50;;;14.42;100.00
70506;BME280;58032;49.820;6.274;2022-09-09T08:50:26;97125.78;;;14.58;100.00
70506;BME280;58032;49.820;6.274;2022-09-09T08:55:53;97127.50;;;15.29;100.00
70506;BME280;58032;49.820;6.274;2022-09-09T08:58:53;97121.66;;;15.38;100.00
70506;BME280;58032;49.820;6.274;2022-09-09T09:02:03;97117.91;;;15.90;100.00
70506;BME280;58032;49.820;6.274;2022-09-09T09:10:48;97114.56;;;15.60;100.00
70506;BME280;58032;49.820;6.274;2022-09-09T09:13:45;97113.97;;;16.31;100.00
70506;BME280;58032;49.820;6.274;2022-09-09T09:16:38;97109.81;;;16.26;100.00
70506;BME280;58032;49.820;6.274;2022-09-09T09:19:14;97105.31;;;16.74;100.00
70506;BME280;58032;49.820;6.274;2022-09-09T09:24:27;97101.19;;;16.81;100.00
70506;BME280;58032;49.820;6.274;2022-09-09T09:27:08;97105.47;;;16.37;100.00
70506;BME280;58032;49.820;6.274;2022-09-09T09:29:39;97103.44;;;16.49;100.00
70506;BME280;58032;49.820;6.274;2022-09-09T09:32:19;97104.25;;;16.72;100.00
70506;BME280;58032;49.820;6.274;2022-09-09T09:34:57;97102.47;;;16.69;100.00
70506;BME280;58032;49.820;6.274;2022-09-09T09:37:33;97109.00;;;16.98;100.00
70506;BME280;58032;49.820;6.274;2022-09-09T09:40:18;97113.09;;;16.80;100.00
70506;BME280;58032;49.820;6.274;2022-09-09T09:42:53;97114.63;;;16.86;100.00
70506;BME280;58032;49.820;6.274;2022-09-09T09:45:35;97119.47;;;16.46;100.00
70506;BME280;58032;49.820;6.274;2022-09-09T09:48:11;97119.81;;;16.10;100.00
70506;BME280;58032;49.820;6.274;2022-09-09T09:51:00;97117.22;;;16.07;100.00
70506;BME280;58032;49.820;6.274;2022-09-09T09:53:30;97123.75;;;15.81;100.00
70506;BME280;58032;49.820;6.274;2022-09-09T10:01:05;97130.09;;;16.02;100.00
70506;BME280;58032;49.820;6.274;2022-09-09T10:03:35;97117.63;;;16.43;100.00
70506;BME280;58032;49.820;6.274;2022-09-09T10:06:07;97122.81;;;16.50;100.00
70506;BME280;58032;49.820;6.274;2022-09-09T10:08:44;97116.00;;;17.14;100.00
70506;BME280;58032;49.820;6.274;2022-09-09T10:11:33;97111.53;;;16.84;100.00
70506;BME280;58032;49.820;6.274;2022-09-09T10:14:21;97120.38;;;16.98;100.00
70506;BME280;58032;49.820;6.274;2022-09-09T10:19:30;97110.31;;;17.53;100.00
70506;BME280;58032;49.820;6.274;2022-09-09T10:27:42;97110.75;;;18.03;98.68
70506;BME280;58032;49.820;6.274;2022-09-09T10:30:20;97102.53;;;17.54;99.76
70506;BME280;58032;49.820;6.274;2022-09-09T10:33:04;97105.91;;;17.13;100.00
70506;BME280;58032;49.820;6.274;2022-09-09T10:38:46;97117.16;;;15.90;100.00
70506;BME280;58032;49.820;6.274;2022-09-09T10:44:12;97119.97;;;15.90;100.00
70506;BME280;58032;49.820;6.274;2022-09-09T10:46:51;97103.22;;;16.69;100.00
70506;BME280;58032;49.820;6.274;2022-09-09T10:57:49;97095.28;;;17.24;100.00
70506;BME280;58032;49.820;6.274;2022-09-09T11:02:53;97093.50;;;17.33;99.51
70506;BME280;58032;49.820;6.274;2022-09-09T11:08:12;97097.13;;;17.39;100.00
70506;BME280;58032;49.820;6.274;2022-09-09T11:10:49;97094.28;;;17.16;100.00
70506;BME280;58032;49.820;6.274;2022-09-09T11:16:36;97087.97;;;17.92;98.37
70506;BME280;58032;49.820;6.274;2022-09-09T11:21:49;97077.13;;;17.79;95.05
70506;BME280;58032;49.820;6.274;2022-09-09T11:24:27;97085.72;;;17.45;100.00
70506;BME280;58032;49.820;6.274;2022-09-09T11:27:00;97084.72;;;17.31;100.00
70506;BME280;58032;49.820;6.274;2022-09-09T11:29:36;97081.59;;;17.29;100.00
70506;BME280;58032;49.820;6.274;2022-09-09T11:35:09;97079.44;;;17.80;100.00
70506;BME280;58032;49.820;6.274;2022-09-09T11:37:55;97083.03;;;17.92;100.00
70506;BME280;58032;49.820;6.274;2022-09-09T11:40:28;97069.16;;;17.49;100.00
70506;BME280;58032;49.820;6.274;2022-09-09T11:45:34;97071.91;;;17.94;98.27
70506;BME280;58032;49.820;6.274;2022-09-09T11:48:03;97076.38;;;17.55;100.00
70506;BME280;58032;49.820;6.274;2022-09-09T11:50:36;97067.63;;;17.36;99.07
70506;BME280;58032;49.820;6.274;2022-09-09T11:53:24;97069.94;;;17.61;99.70
70506;BME280;58032;49.820;6.274;2022-09-09T11:56:03;97070.81;;;18.67;95.96
70506;BME280;58032;49.820;6.274;2022-09-09T11:58:38;97062.19;;;18.37;92.31
70506;BME280;58032;49.820;6.274;2022-09-09T12:01:26;97050.66;;;18.60;88.04
70506;BME280;58032;49.820;6.274;2022-09-09T12:06:49;97056.25;;;18.29;92.02
70506;BME280;58032;49.820;6.274;2022-09-09T12:09:37;97062.38;;;18.45;93.98
70506;BME280;58032;49.820;6.274;2022-09-09T12:17:19;97057.13;;;19.02;88.11
70506;BME280;58032;49.820;6.274;2022-09-09T12:19:47;97064.00;;;19.18;90.33
70506;BME280;58032;49.820;6.274;2022-09-09T12:22:30;97069.78;;;18.65;88.11
70506;BME280;58032;49.820;6.274;2022-09-09T12:27:48;97071.63;;;18.09;95.79
70506;BME280;58032;49.820;6.274;2022-09-09T12:30:20;97065.88;;;18.21;93.48
70506;BME280;58032;49.820;6.274;2022-09-09T12:33:00;97077.16;;;17.67;96.07
70506;BME280;58032;49.820;6.274;2022-09-09T12:35:28;97085.22;;;17.35;100.00
70506;BME280;58032;49.820;6.274;2022-09-09T12:38:02;97094.16;;;15.88;100.00
70506;BME280;58032;49.820;6.274;2022-09-09T12:40:32;97121.47;;;14.89;100.00
70506;BME280;58032;49.820;6.274;2022-09-09T12:43:15;97130.88;;;14.75;100.00
70506;BME280;58032;49.820;6.274;2022-09-09T12:45:43;97121.53;;;14.95;100.00
70506;BME280;58032;49.820;6.274;2022-09-09T12:48:12;97107.84;;;15.19;100.00
70506;BME280;58032;49.820;6.274;2022-09-09T12:50:49;97097.28;;;15.90;100.00
70506;BME280;58032;49.820;6.274;2022-09-09T12:56:00;97088.69;;;18.21;100.00
70506;BME280;58032;49.820;6.274;2022-09-09T12:58:30;97077.59;;;18.64;100.00
70506;BME280;58032;49.820;6.274;2022-09-09T13:01:03;97078.44;;;18.48;100.00
70506;BME280;58032;49.820;6.274;2022-09-09T13:03:42;97073.41;;;18.24;100.00
70506;BME280;58032;49.820;6.274;2022-09-09T13:06:12;97072.78;;;17.49;100.00
70506;BME280;58032;49.820;6.274;2022-09-09T13:08:39;97071.75;;;17.47;100.00
70506;BME280;58032;49.820;6.274;2022-09-09T13:11:12;97073.59;;;17.27;100.00
70506;BME280;58032;49.820;6.274;2022-09-09T13:13:43;97067.09;;;16.98;100.00
70506;BME280;58032;49.820;6.274;2022-09-09T13:16:30;97064.97;;;16.65;100.00
70506;BME280;58032;49.820;6.274;2022-09-09T13:19:07;97072.72;;;16.47;100.00
70506;BME280;58032;49.820;6.274;2022-09-09T13:21:39;97073.75;;;16.50;100.00
70506;BME280;58032;49.820;6.274;2022-09-09T13:24:33;97073.41;;;16.36;100.00
70506;BME280;58032;49.820;6.274;2022-09-09T13:27:04;97079.97;;;15.88;100.00
70506;BME280;58032;49.820;6.274;2022-09-09T13:29:32;97080.53;;;15.60;100.00
70506;BME280;58032;49.820;6.274;2022-09-09T13:32:16;97094.94;;;15.50;100.00
70506;BME280;58032;49.820;6.274;2022-09-09T13:34:54;97102.94;;;15.20;100.00
70506;BME280;58032;49.820;6.274;2022-09-09T13:37:29;97115.94;;;15.00;100.00
70506;BME280;58032;49.820;6.274;2022-09-09T13:39:58;97111.25;;;14.24;100.00
70506;BME280;58032;49.820;6.274;2022-09-09T13:42:28;97122.31;;;13.86;100.00
70506;BME280;58032;49.820;6.274;2022-09-09T13:44:56;97133.66;;;13.86;100.00
70506;BME280;58032;49.820;6.274;2022-09-09T13:47:35;97125.88;;;13.81;100.00
70506;BME280;58032;49.820;6.274;2022-09-09T13:50:26;97123.69;;;13.91;100.00
70506;BME280;58032;49.820;6.274;2022-09-09T13:52:56;97133.28;;;13.79;100.00
70506;BME280;58032;49.820;6.274;2022-09-09T13:55:26;97128.97;;;13.83;100.00
70506;BME280;58032;49.820;6.274;2022-09-09T13:57:57;97129.75;;;13.84;100.00
70506;BME280;58032;49.820;6.274;2022-09-09T14:00:24;97117.47;;;13.87;100.00
70506;BME280;58032;49.820;6.274;2022-09-09T14:02:51;97125.78;;;13.75;100.00
70506;BME280;58032;49.820;6.274;2022-09-09T14:05:19;97124.09;;;13.84;100.00
70506;BME280;58032;49.820;6.274;2022-09-09T14:07:46;97117.84;;;13.80;100.00
70506;BME280;58032;49.820;6.274;2022-09-09T14:10:15;97121.47;;;13.80;100.00
70506;BME280;58032;49.820;6.274;2022-09-09T14:12:43;97126.81;;;13.93;100.00
70506;BME280;58032;49.820;6.274;2022-09-09T14:15:11;97120.28;;;14.07;100.00
70506;BME280;58032;49.820;6.274;2022-09-09T14:17:38;97119.16;;;14.20;100.00
70506;BME280;58032;49.820;6.274;2022-09-09T14:20:07;97114.69;;;14.34;100.00
70506;BME280;58032;49.820;6.274;2022-09-09T14:22:35;97108.16;;;14.48;100.00
70506;BME280;58032;49.820;6.274;2022-09-09T14:25:03;97099.41;;;14.72;100.00
70506;BME280;58032;49.820;6.274;2022-09-09T14:27:30;97106.38;;;14.71;100.00
70506;BME280;58032;49.820;6.274;2022-09-09T14:29:57;97098.31;;;14.91;100.00
70506;BME280;58032;49.820;6.274;2022-09-09T14:32:24;97103.84;;;15.06;100.00
70506;BME280;58032;49.820;6.274;2022-09-09T14:34:51;97095.41;;;15.43;100.00
70506;BME280;58032;49.820;6.274;2022-09-09T14:37:18;97098.59;;;15.57;100.00
70506;BME280;58032;49.820;6.274;2022-09-09T14:39:45;97096.66;;;15.80;100.00
70506;BME280;58032;49.820;6.274;2022-09-09T14:42:14;97096.31;;;16.10;100.00
70506;BME280;58032;49.820;6.274;2022-09-09T14:44:41;97097.38;;;16.18;100.00
70506;BME280;58032;49.820;6.274;2022-09-09T14:47:08;97092.94;;;16.06;100.00
70506;BME280;58032;49.820;6.274;2022-09-09T14:49:35;97108.88;;;15.92;100.00
70506;BME280;58032;49.820;6.274;2022-09-09T14:52:04;97103.81;;;16.13;100.00
70506;BME280;58032;49.820;6.274;2022-09-09T14:54:31;97100.84;;;15.85;100.00
70506;BME280;58032;49.820;6.274;2022-09-09T14:56:58;97096.03;;;16.85;100.00
70506;BME280;58032;49.820;6.274;2022-09-09T14:59:25;97101.47;;;16.89;100.00
70506;BME280;58032;49.820;6.274;2022-09-09T15:01:53;97097.59;;;17.77;100.00